sensor_id;sensor_type;location;lat;lon;timestamp;pressure;altitude;pressure_sealevel;temperature;humidity
34177;BME280;20450;49.074;9.158;2023-02-21T00:02:12;100289.34;;;6.24;79.70
34177;BME280;20450;49.074;9.158;2023-02-21T00:04:39;100287.81;;;6.30;79.52
34177;BME280;20450;49.074;9.158;2023-02-21T00:07:07;100287.66;;;6.31;79.83
34177;BME280;20450;49.074;9.158;2023-02-21T00:09:37;100281.94;;;6.34;80.12
34177;BME280;20450;49.074;9.158;2023-02-21T00:12:04;100275.94;;;6.32;79.54
34177;BME280;20450;49.074;9.158;2023-02-21T00:14:31;100277.66;;;6.17;79.95
34177;BME280;20450;49.074;9.158;2023-02-21T00:16:59;100276.16;;;6.07;81.25
34177;BME280;20450;49.074;9.158;2023-02-21T00:19:25;100284.56;;;5.95;81.83
34177;BME280;20450;49.074;9.158;2023-02-21T00:21:53;100278.53;;;5.85;82.05
34177;BME280;20450;49.074;9.158;2023-02-21T00:24:21;100279.53;;;5.92;81.71
34177;BME280;20450;49.074;9.158;2023-02-21T00:26:48;100274.00;;;6.02;81.63
34177;BME280;20450;49.074;9.158;2023-02-21T00:29:15;100266.28;;;5.75;82.08
34177;BME280;20450;49.074;9.158;2023-02-21T00:31:42;100268.78;;;5.76;81.82
34177;BME280;20450;49.074;9.158;2023-02-21T00:34:10;100267.94;;;5.76;81.10
34177;BME280;20450;49.074;9.158;2023-02-21T00:36:36;100266.78;;;5.78;81.29
34177;BME280;20450;49.074;9.158;2023-02-21T00:39:03;100263.94;;;5.72;80.09
34177;BME280;20450;49.074;9.158;2023-02-21T00:41:32;100265.97;;;5.46;81.10
34177;BME280;20450;49.074;9.158;2023-02-21T00:43:59;100270.16;;;5.48;81.08
34177;BME280;20450;49.074;9.158;2023-02-21T00:46:26;100272.34;;;5.53;82.09
34177;BME280;20450;49.074;9.158;2023-02-21T00:48:53;100274.69;;;5.56;82.02
34177;BME280;20450;49.074;9.158;2023-02-21T00:51:20;100277.66;;;5.61;82.02
34177;BME280;20450;49.074;9.158;2023-02-21T00:53:48;100266.63;;;5.64;82.08
34177;BME280;20450;49.074;9.158;2023-02-21T00:56:14;100263.63;;;5.43;83.13
34177;BME280;20450;49.074;9.158;2023-02-21T00:58:45;100265.78;;;5.55;82.64
34177;BME280;20450;49.074;9.158;2023-02-21T01:01:12;100266.97;;;5.45;81.85
34177;BME280;20450;49.074;9.158;2023-02-21T01:03:40;100269.66;;;5.53;82.05
34177;BME280;20450;49.074;9.158;2023-02-21T01:06:08;100261.94;;;5.50;81.50
34177;BME280;20450;49.074;9.158;2023-02-21T01:08:39;100266.28;;;5.51;81.59
34177;BME280;20450;49.074;9.158;2023-02-21T01:11:13;100261.59;;;5.45;82.38
34177;BME280;20450;49.074;9.158;2023-02-21T01:13:42;100259.25;;;5.42;82.91
34177;BME280;20450;49.074;9.158;2023-02-21T01:16:10;100270.84;;;5.50;82.26
34177;BME280;20450;49.074;9.158;2023-02-21T01:18:39;100265.13;;;5.53;80.67
34177;BME280;20450;49.074;9.158;2023-02-21T01:21:11;100278.84;;;5.42;81.85
34177;BME280;20450;49.074;9.158;2023-02-21T01:23:39;100269.13;;;5.49;81.88
34177;BME280;20450;49.074;9.158;2023-02-21T01:26:07;100274.16;;;5.60;81.74
34177;BME280;20450;49.074;9.158;2023-02-21T01:28:35;100264.44;;;5.67;81.04
34177;BME280;20450;49.074;9.158;2023-02-21T01:31:02;100257.56;;;5.73;80.42
34177;BME280;20450;49.074;9.158;2023-02-21T01:33:35;100265.28;;;5.68;79.83
34177;BME280;20450;49.074;9.158;2023-02-21T01:36:04;100266.44;;;5.65;81.08
34177;BME280;20450;49.074;9.158;2023-02-21T01:38:32;100271.63;;;5.67;80.80
34177;BME280;20450;49.074;9.158;2023-02-21T01:40:59;100263.94;;;5.48;81.95
34177;BME280;20450;49.074;9.158;2023-02-21T01:43:27;100252.22;;;5.41;81.77
34177;BME280;20450;49.074;9.158;2023-02-21T01:45:54;100260.09;;;5.42;81.38
34177;BME280;20450;49.074;9.158;2023-02-21T01:48:23;100252.22;;;5.33;82.29
34177;BME280;20450;49.074;9.158;2023-02-21T01:50:54;100257.91;;;5.30;81.21
34177;BME280;20450;49.074;9.158;2023-02-21T01:53:25;100249.53;;;5.33;80.48
34177;BME280;20450;49.074;9.158;2023-02-21T01:55:55;100257.91;;;5.38;81.11
34177;BME280;20450;49.074;9.158;2023-02-21T01:58:25;100255.25;;;5.22;82.35
34177;BME280;20450;49.074;9.158;2023-02-21T02:00:54;100260.91;;;5.27;82.51
34177;BME280;20450;49.074;9.158;2023-02-21T02:03:21;100254.41;;;5.13;82.85
34177;BME280;20450;49.074;9.158;2023-02-21T02:05:51;100257.22;;;5.20;83.03
34177;BME280;20450;49.074;9.158;2023-02-21T02:08:26;100251.38;;;5.08;82.89
34177;BME280;20450;49.074;9.158;2023-02-21T02:11:03;100260.25;;;5.17;82.92
34177;BME280;20450;49.074;9.158;2023-02-21T02:13:55;100248.34;;;5.19;81.15
34177;BME280;20450;49.074;9.158;2023-02-21T02:16:41;100258.22;;;5.11;81.15
34177;BME280;20450;49.074;9.158;2023-02-21T02:19:30;100257.72;;;5.15;81.19
34177;BME280;20450;49.074;9.158;2023-02-21T02:22:46;100246.69;;;5.18;80.67
34177;BME280;20450;49.074;9.158;2023-02-21T02:25:48;100238.16;;;5.23;79.75
34177;BME280;20450;49.074;9.158;2023-02-21T02:28:47;100244.50;;;5.30;79.71
34177;BME280;20450;49.074;9.158;2023-02-21T02:31:46;100236.31;;;5.31;79.11
34177;BME280;20450;49.074;9.158;2023-02-21T02:34:43;100238.19;;;5.31;79.12
34177;BME280;20450;49.074;9.158;2023-02-21T02:37:20;100234.25;;;4.85;79.58
34177;BME280;20450;49.074;9.158;2023-02-21T02:40:06;100237.56;;;4.79;80.42
34177;BME280;20450;49.074;9.158;2023-02-21T02:42:48;100231.59;;;4.93;79.82
34177;BME280;20450;49.074;9.158;2023-02-21T02:45:25;100240.31;;;5.03;78.73
34177;BME280;20450;49.074;9.158;2023-02-21T02:48:04;100246.88;;;5.09;78.32
34177;BME280;20450;49.074;9.158;2023-02-21T02:50:38;100230.13;;;5.07;79.11
34177;BME280;20450;49.074;9.158;2023-02-21T02:53:07;100238.97;;;5.15;78.96
34177;BME280;20450;49.074;9.158;2023-02-21T02:55:39;100243.31;;;5.16;79.01
34177;BME280;20450;49.074;9.158;2023-02-21T02:58:10;100237.31;;;5.14;78.71
34177;BME280;20450;49.074;9.158;2023-02-21T03:00:39;100231.28;;;5.12;78.92
34177;BME280;20450;49.074;9.158;2023-02-21T03:03:34;100236.63;;;5.12;79.04
34177;BME280;20450;49.074;9.158;2023-02-21T03:06:28;100246.88;;;5.09;78.71
34177;BME280;20450;49.074;9.158;2023-02-21T03:09:12;100246.53;;;5.12;78.59
34177;BME280;20450;49.074;9.158;2023-02-21T03:11:48;100244.03;;;5.10;77.79
34177;BME280;20450;49.074;9.158;2023-02-21T03:14:28;100242.66;;;5.06;77.64
34177;BME280;20450;49.074;9.158;2023-02-21T03:17:07;100240.47;;;5.02;79.27
34177;BME280;20450;49.074;9.158;2023-02-21T03:19:39;100247.69;;;5.01;78.65
34177;BME280;20450;49.074;9.158;2023-02-21T03:22:14;100247.31;;;4.80;79.28
34177;BME280;20450;49.074;9.158;2023-02-21T03:24:48;100249.28;;;4.78;79.13
34177;BME280;20450;49.074;9.158;2023-02-21T03:27:19;100247.31;;;4.88;79.63
34177;BME280;20450;49.074;9.158;2023-02-21T03:29:59;100248.50;;;4.94;79.17
34177;BME280;20450;49.074;9.158;2023-02-21T03:32:33;100250.50;;;4.92;80.05
34177;BME280;20450;49.074;9.158;2023-02-21T03:35:04;100244.81;;;4.95;79.52
34177;BME280;20450;49.074;9.158;2023-02-21T03:37:36;100245.34;;;4.98;79.52
34177;BME280;20450;49.074;9.158;2023-02-21T03:40:10;100241.97;;;4.96;79.87
34177;BME280;20450;49.074;9.158;2023-02-21T03:42:44;100245.66;;;4.95;80.68
34177;BME280;20450;49.074;9.158;2023-02-21T03:45:14;100246.00;;;4.92;79.07
34177;BME280;20450;49.074;9.158;2023-02-21T03:47:43;100237.44;;;4.89;77.99
34177;BME280;20450;49.074;9.158;2023-02-21T03:50:10;100249.97;;;4.88;78.65
34177;BME280;20450;49.074;9.158;2023-02-21T03:52:42;100244.81;;;4.95;79.13
34177;BME280;20450;49.074;9.158;2023-02-21T03:55:09;100247.66;;;4.93;78.27
34177;BME280;20450;49.074;9.158;2023-02-21T03:57:37;100247.50;;;4.95;77.43
34177;BME280;20450;49.074;9.158;2023-02-21T04:00:04;100245.84;;;4.94;77.91
34177;BME280;20450;49.074;9.158;2023-02-21T04:02:40;100242.47;;;4.92;77.75
34177;BME280;20450;49.074;9.158;2023-02-21T04:05:12;100249.81;;;4.90;78.00
34177;BME280;20450;49.074;9.158;2023-02-21T04:07:41;100245.47;;;4.89;77.49
34177;BME280;20450;49.074;9.158;2023-02-21T04:10:09;100238.25;;;4.81;77.13
34177;BME280;20450;49.074;9.158;2023-02-21T04:12:41;100231.34;;;4.55;78.02
34177;BME280;20450;49.074;9.158;2023-02-21T04:15:09;100229.75;;;4.36;79.15
34177;BME280;20450;49.074;9.158;2023-02-21T04:17:36;100232.63;;;4.43;80.07
34177;BME280;20450;49.074;9.158;2023-02-21T04:20:05;100228.47;;;4.48;80.30
34177;BME280;20450;49.074;9.158;2023-02-21T04:22:37;100231.00;;;4.58;79.72
34177;BME280;20450;49.074;9.158;2023-02-21T04:25:06;100236.03;;;4.61;79.35
34177;BME280;20450;49.074;9.158;2023-02-21T04:27:40;100236.88;;;4.61;79.94
34177;BME280;20450;49.074;9.158;2023-02-21T04:30:09;100228.28;;;4.42;81.84
34177;BME280;20450;49.074;9.158;2023-02-21T04:32:37;100233.97;;;4.47;81.68
34177;BME280;20450;49.074;9.158;2023-02-21T04:35:08;100223.06;;;4.32;81.72
34177;BME280;20450;49.074;9.158;2023-02-21T04:37:36;100225.50;;;4.18;82.82
34177;BME280;20450;49.074;9.158;2023-02-21T04:40:03;100240.59;;;4.27;82.53
34177;BME280;20450;49.074;9.158;2023-02-21T04:42:34;100240.75;;;4.33;81.55
34177;BME280;20450;49.074;9.158;2023-02-21T04:45:01;100237.09;;;4.34;81.29
34177;BME280;20450;49.074;9.158;2023-02-21T04:47:29;100232.09;;;4.39;81.16
34177;BME280;20450;49.074;9.158;2023-02-21T04:49:59;100236.31;;;4.50;80.76
34177;BME280;20450;49.074;9.158;2023-02-21T04:52:31;100231.28;;;4.39;80.95
34177;BME280;20450;49.074;9.158;2023-02-21T04:54:58;100239.16;;;4.48;80.53
34177;BME280;20450;49.074;9.158;2023-02-21T04:57:26;100231.50;;;4.53;79.01
34177;BME280;20450;49.074;9.158;2023-02-21T04:59:56;100231.97;;;4.49;79.39
34177;BME280;20450;49.074;9.158;2023-02-21T05:02:24;100233.97;;;4.47;79.32
34177;BME280;20450;49.074;9.158;2023-02-21T05:04:51;100219.41;;;4.41;79.36
34177;BME280;20450;49.074;9.158;2023-02-21T05:07:18;100223.59;;;4.44;79.52
34177;BME280;20450;49.074;9.158;2023-02-21T05:09:45;100227.81;;;4.46;79.27
34177;BME280;20450;49.074;9.158;2023-02-21T05:12:12;100220.28;;;4.50;80.10
34177;BME280;20450;49.074;9.158;2023-02-21T05:14:40;100233.31;;;4.53;80.42
34177;BME280;20450;49.074;9.158;2023-02-21T05:17:07;100223.31;;;4.55;80.14
34177;BME280;20450;49.074;9.158;2023-02-21T05:19:35;100217.47;;;4.59;80.04
34177;BME280;20450;49.074;9.158;2023-02-21T05:22:02;100209.78;;;4.56;80.22
34177;BME280;20450;49.074;9.158;2023-02-21T05:24:29;100215.94;;;4.49;80.97
34177;BME280;20450;49.074;9.158;2023-02-21T05:26:56;100211.22;;;4.43;80.66
34177;BME280;20450;49.074;9.158;2023-02-21T05:29:24;100212.03;;;4.35;80.50
34177;BME280;20450;49.074;9.158;2023-02-21T05:31:52;100210.31;;;4.26;81.20
34177;BME280;20450;49.074;9.158;2023-02-21T05:34:19;100215.16;;;4.23;82.28
34177;BME280;20450;49.074;9.158;2023-02-21T05:36:46;100215.84;;;4.25;82.92
34177;BME280;20450;49.074;9.158;2023-02-21T05:39:13;100228.88;;;4.20;82.50
34177;BME280;20450;49.074;9.158;2023-02-21T05:41:45;100227.25;;;4.01;82.52
34177;BME280;20450;49.074;9.158;2023-02-21T05:44:15;100228.28;;;3.82;83.61
34177;BME280;20450;49.074;9.158;2023-02-21T05:46:43;100233.63;;;3.74;83.64
34177;BME280;20450;49.074;9.158;2023-02-21T05:49:11;100236.63;;;3.79;84.27
34177;BME280;20450;49.074;9.158;2023-02-21T05:51:40;100241.88;;;3.89;83.38
34177;BME280;20450;49.074;9.158;2023-02-21T05:54:13;100240.25;;;3.96;83.20
34177;BME280;20450;49.074;9.158;2023-02-21T05:56:44;100240.84;;;4.07;83.17
34177;BME280;20450;49.074;9.158;2023-02-21T05:59:13;100246.88;;;4.18;82.25
34177;BME280;20450;49.074;9.158;2023-02-21T06:01:41;100252.94;;;4.28;81.52
34177;BME280;20450;49.074;9.158;2023-02-21T06:04:11;100241.28;;;4.37;81.44
34177;BME280;20450;49.074;9.158;2023-02-21T06:06:38;100243.69;;;4.48;80.50
34177;BME280;20450;49.074;9.158;2023-02-21T06:09:07;100240.22;;;4.22;80.53
34177;BME280;20450;49.074;9.158;2023-02-21T06:11:36;100242.56;;;4.25;80.76
34177;BME280;20450;49.074;9.158;2023-02-21T06:14:06;100244.53;;;4.15;80.15
34177;BME280;20450;49.074;9.158;2023-02-21T06:16:36;100243.81;;;4.04;81.05
34177;BME280;20450;49.074;9.158;2023-02-21T06:19:05;100235.81;;;4.13;80.87
34177;BME280;20450;49.074;9.158;2023-02-21T06:21:35;100239.91;;;4.25;80.25
34177;BME280;20450;49.074;9.158;2023-02-21T06:24:02;100237.78;;;4.02;80.06
34177;BME280;20450;49.074;9.158;2023-02-21T06:26:30;100238.78;;;3.76;81.39
34177;BME280;20450;49.074;9.158;2023-02-21T06:28:57;100242.75;;;3.97;81.16
34177;BME280;20450;49.074;9.158;2023-02-21T06:31:25;100243.19;;;4.11;80.66
34177;BME280;20450;49.074;9.158;2023-02-21T06:33:52;100240.78;;;3.99;80.71
34177;BME280;20450;49.074;9.158;2023-02-21T06:36:21;100245.50;;;4.05;79.89
34177;BME280;20450;49.074;9.158;2023-02-21T06:38:53;100236.50;;;4.15;79.32
34177;BME280;20450;49.074;9.158;2023-02-21T06:41:24;100233.59;;;4.34;78.24
34177;BME280;20450;49.074;9.158;2023-02-21T06:43:52;100240.94;;;4.81;77.25
34177;BME280;20450;49.074;9.158;2023-02-21T06:46:21;100233.31;;;5.26;75.22
34177;BME280;20450;49.074;9.158;2023-02-21T06:48:50;100227.41;;;5.79;73.14
34177;BME280;20450;49.074;9.158;2023-02-21T06:51:18;100232.13;;;5.85;72.77
34177;BME280;20450;49.074;9.158;2023-02-21T06:53:48;100243.81;;;6.00;72.34
34177;BME280;20450;49.074;9.158;2023-02-21T06:56:17;100234.00;;;6.31;72.05
34177;BME280;20450;49.074;9.158;2023-02-21T06:58:44;100239.00;;;6.73;71.13
34177;BME280;20450;49.074;9.158;2023-02-21T07:01:11;100233.66;;;7.26;69.75
34177;BME280;20450;49.074;9.158;2023-02-21T07:03:39;100237.47;;;7.54;69.23
34177;BME280;20450;49.074;9.158;2023-02-21T07:06:06;100231.69;;;7.94;67.49
34177;BME280;20450;49.074;9.158;2023-02-21T07:08:34;100246.47;;;8.85;64.79
34177;BME280;20450;49.074;9.158;2023-02-21T07:11:02;100232.06;;;9.56;62.28
34177;BME280;20450;49.074;9.158;2023-02-21T07:13:37;100232.78;;;10.20;59.21
34177;BME280;20450;49.074;9.158;2023-02-21T07:16:06;100227.88;;;10.77;56.34
34177;BME280;20450;49.074;9.158;2023-02-21T07:18:36;100233.22;;;11.24;54.59
34177;BME280;20450;49.074;9.158;2023-02-21T07:21:03;100230.16;;;11.59;52.97
34177;BME280;20450;49.074;9.158;2023-02-21T07:23:30;100226.41;;;12.19;51.23
34177;BME280;20450;49.074;9.158;2023-02-21T07:25:57;100232.34;;;12.60;49.17
34177;BME280;20450;49.074;9.158;2023-02-21T07:28:24;100222.13;;;13.19;55.60
34177;BME280;20450;49.074;9.158;2023-02-21T07:30:52;100222.84;;;13.64;49.95
34177;BME280;20450;49.074;9.158;2023-02-21T07:33:19;100219.41;;;14.24;48.30
34177;BME280;20450;49.074;9.158;2023-02-21T07:35:47;100221.25;;;14.48;45.10
34177;BME280;20450;49.074;9.158;2023-02-21T07:38:19;100218.81;;;14.58;45.42
34177;BME280;20450;49.074;9.158;2023-02-21T07:40:47;100219.44;;;14.60;44.66
34177;BME280;20450;49.074;9.158;2023-02-21T07:43:15;100222.41;;;15.36;43.98
34177;BME280;20450;49.074;9.158;2023-02-21T07:45:42;100220.56;;;16.01;40.94
34177;BME280;20450;49.074;9.158;2023-02-21T07:48:11;100225.19;;;16.35;40.54
34177;BME280;20450;49.074;9.158;2023-02-21T07:50:38;100232.19;;;16.54;39.43
34177;BME280;20450;49.074;9.158;2023-02-21T07:53:05;100237.50;;;15.38;43.16
34177;BME280;20450;49.074;9.158;2023-02-21T07:55:32;100230.25;;;15.97;42.13
34177;BME280;20450;49.074;9.158;2023-02-21T07:57:59;100237.75;;;16.70;40.01
34177;BME280;20450;49.074;9.158;2023-02-21T08:00:26;100234.47;;;17.08;39.63
34177;BME280;20450;49.074;9.158;2023-02-21T08:02:53;100233.84;;;16.55;40.46
34177;BME280;20450;49.074;9.158;2023-02-21T08:05:22;100231.63;;;17.03;39.59
34177;BME280;20450;49.074;9.158;2023-02-21T08:07:49;100230.22;;;17.28;39.06
34177;BME280;20450;49.074;9.158;2023-02-21T08:10:20;100218.91;;;17.81;37.89
34177;BME280;20450;49.074;9.158;2023-02-21T08:12:54;100224.94;;;18.49;37.00
34177;BME280;20450;49.074;9.158;2023-02-21T08:15:21;100222.41;;;18.86;35.21
34177;BME280;20450;49.074;9.158;2023-02-21T08:17:49;100224.13;;;18.70;35.27
34177;BME280;20450;49.074;9.158;2023-02-21T08:20:17;100220.13;;;18.99;34.80
34177;BME280;20450;49.074;9.158;2023-02-21T08:22:46;100220.00;;;18.89;34.91
34177;BME280;20450;49.074;9.158;2023-02-21T08:25:14;100222.28;;;18.97;35.09
34177;BME280;20450;49.074;9.158;2023-02-21T08:27:43;100228.59;;;18.98;34.68
34177;BME280;20450;49.074;9.158;2023-02-21T08:30:14;100217.16;;;19.49;34.17
34177;BME280;20450;49.074;9.158;2023-02-21T08:32:42;100227.34;;;19.54;34.55
34177;BME280;20450;49.074;9.158;2023-02-21T08:35:12;100226.50;;;20.11;33.62
34177;BME280;20450;49.074;9.158;2023-02-21T08:37:43;100234.28;;;19.93;34.18
34177;BME280;20450;49.074;9.158;2023-02-21T08:40:12;100233.53;;;17.75;38.20
34177;BME280;20450;49.074;9.158;2023-02-21T08:42:40;100240.16;;;17.06;40.40
34177;BME280;20450;49.074;9.158;2023-02-21T08:45:15;100240.13;;;16.78;42.56
34177;BME280;20450;49.074;9.158;2023-02-21T08:47:45;100237.16;;;17.47;40.88
34177;BME280;20450;49.074;9.158;2023-02-21T08:50:12;100236.44;;;14.74;43.55
34177;BME280;20450;49.074;9.158;2023-02-21T08:52:39;100233.53;;;15.05;44.38
34177;BME280;20450;49.074;9.158;2023-02-21T08:55:07;100233.94;;;14.12;47.31
34177;BME280;20450;49.074;9.158;2023-02-21T08:57:35;100233.38;;;13.78;46.88
34177;BME280;20450;49.074;9.158;2023-02-21T09:00:03;100224.75;;;14.06;47.20
34177;BME280;20450;49.074;9.158;2023-02-21T09:02:31;100231.34;;;13.99;50.26
34177;BME280;20450;49.074;9.158;2023-02-21T09:04:58;100224.78;;;13.81;48.52
34177;BME280;20450;49.074;9.158;2023-02-21T09:07:24;100222.88;;;14.49;46.60
34177;BME280;20450;49.074;9.158;2023-02-21T09:09:51;100218.06;;;15.17;43.99
34177;BME280;20450;49.074;9.158;2023-02-21T09:12:18;100224.34;;;16.00;43.14
34177;BME280;20450;49.074;9.158;2023-02-21T09:14:46;100220.63;;;17.26;41.34
34177;BME280;20450;49.074;9.158;2023-02-21T09:17:13;100212.88;;;17.96;39.44
34177;BME280;20450;49.074;9.158;2023-02-21T09:19:40;100223.53;;;18.47;37.31
34177;BME280;20450;49.074;9.158;2023-02-21T09:22:08;100224.81;;;17.17;41.06
34177;BME280;20450;49.074;9.158;2023-02-21T09:24:38;100217.19;;;18.63;38.44
34177;BME280;20450;49.074;9.158;2023-02-21T09:27:05;100215.66;;;18.17;38.34
34177;BME280;20450;49.074;9.158;2023-02-21T09:29:34;100214.75;;;18.28;37.90
34177;BME280;20450;49.074;9.158;2023-02-21T09:32:13;100211.53;;;18.91;36.74
34177;BME280;20450;49.074;9.158;2023-02-21T09:34:40;100216.53;;;19.20;36.43
34177;BME280;20450;49.074;9.158;2023-02-21T09:37:07;100210.72;;;19.12;35.81
34177;BME280;20450;49.074;9.158;2023-02-21T09:39:35;100210.16;;;18.34;37.60
34177;BME280;20450;49.074;9.158;2023-02-21T09:42:02;100211.28;;;19.35;36.77
34177;BME280;20450;49.074;9.158;2023-02-21T09:44:29;100208.88;;;20.02;35.02
34177;BME280;20450;49.074;9.158;2023-02-21T09:46:59;100214.97;;;19.51;35.78
34177;BME280;20450;49.074;9.158;2023-02-21T09:49:32;100206.31;;;19.32;35.20
34177;BME280;20450;49.074;9.158;2023-02-21T09:52:04;100209.91;;;19.38;36.33
34177;BME280;20450;49.074;9.158;2023-02-21T09:54:45;100207.91;;;20.60;34.87
34177;BME280;20450;49.074;9.158;2023-02-21T09:57:17;100207.50;;;19.41;36.03
34177;BME280;20450;49.074;9.158;2023-02-21T09:59:44;100197.41;;;18.77;37.38
34177;BME280;20450;49.074;9.158;2023-02-21T10:02:29;100203.63;;;15.87;41.51
34177;BME280;20450;49.074;9.158;2023-02-21T10:05:32;100213.91;;;17.17;39.64
34177;BME280;20450;49.074;9.158;2023-02-21T10:08:20;100204.88;;;15.61;43.29
34177;BME280;20450;49.074;9.158;2023-02-21T10:10:55;100196.84;;;17.54;39.31
34177;BME280;20450;49.074;9.158;2023-02-21T10:13:33;100199.25;;;17.23;39.13
34177;BME280;20450;49.074;9.158;2023-02-21T10:16:12;100201.03;;;18.83;37.05
34177;BME280;20450;49.074;9.158;2023-02-21T10:18:47;100204.53;;;18.78;35.93
34177;BME280;20450;49.074;9.158;2023-02-21T10:21:29;100195.16;;;19.17;35.63
34177;BME280;20450;49.074;9.158;2023-02-21T10:24:04;100194.81;;;19.94;34.01
34177;BME280;20450;49.074;9.158;2023-02-21T10:26:38;100197.56;;;19.35;34.55
34177;BME280;20450;49.074;9.158;2023-02-21T10:29:19;100182.63;;;18.78;37.11
34177;BME280;20450;49.074;9.158;2023-02-21T10:31:54;100192.84;;;19.58;35.93
34177;BME280;20450;49.074;9.158;2023-02-21T10:34:27;100185.75;;;18.87;36.57
34177;BME280;20450;49.074;9.158;2023-02-21T10:37:02;100187.78;;;18.96;36.55
34177;BME280;20450;49.074;9.158;2023-02-21T10:39:50;100188.25;;;20.31;34.69
34177;BME280;20450;49.074;9.158;2023-02-21T10:42:28;100186.28;;;22.25;31.80
34177;BME280;20450;49.074;9.158;2023-02-21T10:45:01;100184.13;;;23.06;29.20
34177;BME280;20450;49.074;9.158;2023-02-21T10:47:39;100182.44;;;22.16;30.57
34177;BME280;20450;49.074;9.158;2023-02-21T10:50:15;100188.66;;;21.16;31.86
34177;BME280;20450;49.074;9.158;2023-02-21T10:52:49;100181.66;;;21.86;30.77
34177;BME280;20450;49.074;9.158;2023-02-21T10:55:19;100173.13;;;21.87;30.92
34177;BME280;20450;49.074;9.158;2023-02-21T10:58:06;100170.34;;;22.12;30.57
34177;BME280;20450;49.074;9.158;2023-02-21T11:00:35;100168.09;;;22.39;30.25
34177;BME280;20450;49.074;9.158;2023-02-21T11:03:06;100164.81;;;22.27;29.64
34177;BME280;20450;49.074;9.158;2023-02-21T11:05:48;100162.88;;;23.11;29.06
34177;BME280;20450;49.074;9.158;2023-02-21T11:08:33;100158.97;;;22.64;29.38
34177;BME280;20450;49.074;9.158;2023-02-21T11:11:04;100152.22;;;20.69;32.53
34177;BME280;20450;49.074;9.158;2023-02-21T11:13:32;100152.72;;;22.23;30.51
34177;BME280;20450;49.074;9.158;2023-02-21T11:16:09;100145.41;;;23.70;28.33
34177;BME280;20450;49.074;9.158;2023-02-21T11:18:37;100141.84;;;24.78;26.78
34177;BME280;20450;49.074;9.158;2023-02-21T11:21:10;100137.78;;;22.54;29.04
34177;BME280;20450;49.074;9.158;2023-02-21T11:23:47;100136.09;;;23.61;28.13
34177;BME280;20450;49.074;9.158;2023-02-21T11:26:21;100132.75;;;24.49;26.93
34177;BME280;20450;49.074;9.158;2023-02-21T11:28:48;100128.06;;;24.73;26.00
34177;BME280;20450;49.074;9.158;2023-02-21T11:31:19;100120.22;;;24.10;27.65
34177;BME280;20450;49.074;9.158;2023-02-21T11:33:55;100120.00;;;24.30;27.29
34177;BME280;20450;49.074;9.158;2023-02-21T11:36:27;100111.44;;;24.97;26.02
34177;BME280;20450;49.074;9.158;2023-02-21T11:39:03;100104.91;;;25.49;25.67
34177;BME280;20450;49.074;9.158;2023-02-21T11:41:36;100106.81;;;25.99;25.17
34177;BME280;20450;49.074;9.158;2023-02-21T11:44:29;100102.75;;;26.23;24.58
34177;BME280;20450;49.074;9.158;2023-02-21T11:47:06;100094.38;;;25.32;25.54
34177;BME280;20450;49.074;9.158;2023-02-21T11:49:47;100100.63;;;22.57;29.28
34177;BME280;20450;49.074;9.158;2023-02-21T11:52:22;100099.13;;;21.71;30.81
34177;BME280;20450;49.074;9.158;2023-02-21T11:54:53;100088.41;;;22.73;29.73
34177;BME280;20450;49.074;9.158;2023-02-21T11:57:24;100084.31;;;22.70;29.36
34177;BME280;20450;49.074;9.158;2023-02-21T12:00:14;100076.63;;;22.62;29.66
34177;BME280;20450;49.074;9.158;2023-02-21T12:03:24;100065.88;;;22.61;29.21
34177;BME280;20450;49.074;9.158;2023-02-21T12:06:11;100072.03;;;18.74;35.64
34177;BME280;20450;49.074;9.158;2023-02-21T12:08:50;100071.00;;;17.11;39.59
34177;BME280;20450;49.074;9.158;2023-02-21T12:11:31;100066.81;;;17.70;38.66
34177;BME280;20450;49.074;9.158;2023-02-21T12:14:14;100053.13;;;17.37;39.29
34177;BME280;20450;49.074;9.158;2023-02-21T12:16:58;100049.72;;;17.80;39.28
34177;BME280;20450;49.074;9.158;2023-02-21T12:19:58;100040.91;;;17.56;39.26
34177;BME280;20450;49.074;9.158;2023-02-21T12:22:45;100026.56;;;17.66;39.04
34177;BME280;20450;49.074;9.158;2023-02-21T12:25:35;100026.53;;;17.82;38.75
34177;BME280;20450;49.074;9.158;2023-02-21T12:28:20;100016.94;;;18.44;37.19
34177;BME280;20450;49.074;9.158;2023-02-21T12:31:11;100008.78;;;18.28;37.68
34177;BME280;20450;49.074;9.158;2023-02-21T12:33:57;100014.16;;;17.58;38.08
34177;BME280;20450;49.074;9.158;2023-02-21T12:36:55;100000.44;;;17.03;40.66
34177;BME280;20450;49.074;9.158;2023-02-21T12:39:45;100001.66;;;17.29;40.11
34177;BME280;20450;49.074;9.158;2023-02-21T12:42:31;99995.50;;;17.00;40.32
34177;BME280;20450;49.074;9.158;2023-02-21T12:45:24;99987.00;;;17.35;40.02
34177;BME280;20450;49.074;9.158;2023-02-21T12:48:09;99984.28;;;17.51;39.67
34177;BME280;20450;49.074;9.158;2023-02-21T12:50:47;99979.78;;;17.62;39.22
34177;BME280;20450;49.074;9.158;2023-02-21T12:53:23;99972.88;;;17.76;39.07
34177;BME280;20450;49.074;9.158;2023-02-21T12:56:00;99974.41;;;17.67;40.23
34177;BME280;20450;49.074;9.158;2023-02-21T12:58:34;99962.94;;;17.32;41.27
34177;BME280;20450;49.074;9.158;2023-02-21T13:01:12;99958.13;;;17.39;40.25
34177;BME280;20450;49.074;9.158;2023-02-21T13:03:53;99950.50;;;17.57;39.94
34177;BME280;20450;49.074;9.158;2023-02-21T13:06:30;99949.50;;;17.85;41.58
34177;BME280;20450;49.074;9.158;2023-02-21T13:09:09;99948.69;;;18.06;41.27
34177;BME280;20450;49.074;9.158;2023-02-21T13:11:50;99936.91;;;18.06;41.35
34177;BME280;20450;49.074;9.158;2023-02-21T13:14:30;99931.50;;;17.89;38.72
34177;BME280;20450;49.074;9.158;2023-02-21T13:17:00;99932.41;;;17.73;39.39
34177;BME280;20450;49.074;9.158;2023-02-21T13:19:40;99935.03;;;17.63;40.49
34177;BME280;20450;49.074;9.158;2023-02-21T13:26:07;99918.69;;;17.46;39.80
34177;BME280;20450;49.074;9.158;2023-02-21T13:28:50;99912.72;;;17.49;40.52